createdAt,value
2023-01-04T00:01:50.263Z,99537.75
2023-01-04T00:04:16.724Z,99523.63
2023-01-04T00:06:43.137Z,99519.13
2023-01-04T00:09:09.688Z,99517.22
2023-01-04T00:11:36.097Z,99515.16
2023-01-04T00:14:02.634Z,99515.31
2023-01-04T00:16:29.528Z,99514.41
2023-01-04T00:18:57.474Z,99511.66
2023-01-04T00:21:31.415Z,99506.41
2023-01-04T00:24:00.510Z,99502.38
2023-01-04T00:26:30.267Z,99502.78
2023-01-04T00:28:59.204Z,99495.84
2023-01-04T00:31:26.363Z,99490.25
2023-01-04T00:33:58.230Z,99489.88
2023-01-04T00:36:25.285Z,99488.16
2023-01-04T00:39:07.180Z,99475.69
2023-01-04T00:44:26.143Z,99476.19
2023-01-04T00:46:52.947Z,99472.81
2023-01-04T00:49:19.503Z,99471.00
2023-01-04T00:51:45.941Z,99473.06
2023-01-04T00:54:14.454Z,99458.44
2023-01-04T00:56:40.905Z,99446.19
2023-01-04T00:59:07.480Z,99436.13
2023-01-04T01:01:35.231Z,99439.75
2023-01-04T01:04:04.321Z,99433.47
2023-01-04T01:06:33.494Z,99423.19
2023-01-04T01:09:00.543Z,99423.97
2023-01-04T01:11:27.402Z,99412.94
2023-01-04T01:13:54.072Z,99407.09
2023-01-04T01:16:44.411Z,99415.47
2023-01-04T01:19:09.372Z,99403.19
2023-01-04T01:21:35.870Z,99411.13
2023-01-04T01:24:02.428Z,99414.94
2023-01-04T01:26:28.899Z,99421.38
2023-01-04T01:28:55.316Z,99414.41
2023-01-04T01:31:24.357Z,99403.72
2023-01-04T01:33:53.210Z,99396.28
2023-01-04T01:36:21.419Z,99402.03
2023-01-04T01:38:48.186Z,99394.59
2023-01-04T01:41:24.296Z,99387.50
2023-01-04T01:44:44.182Z,99390.78
2023-01-04T01:47:17.191Z,99376.69
2023-01-04T01:49:46.759Z,99374.78
2023-01-04T01:52:25.249Z,99376.72
2023-01-04T01:54:58.720Z,99367.16
2023-01-04T01:57:31.560Z,99378.28
2023-01-04T02:00:02.291Z,99371.81
2023-01-04T02:02:29.285Z,99365.44
2023-01-04T02:04:56.715Z,99372.53
2023-01-04T02:07:26.547Z,99369.94
2023-01-04T02:09:54.067Z,99352.19
2023-01-04T02:12:20.528Z,99346.59
2023-01-04T02:14:50.251Z,99349.69
2023-01-04T02:17:19.645Z,99358.91
2023-01-04T02:20:14.021Z,99354.78
2023-01-04T02:23:01.805Z,99348.09
2023-01-04T02:25:54.673Z,99344.59
2023-01-04T02:28:39.536Z,99331.78
2023-01-04T02:31:43.963Z,99333.88
2023-01-04T02:34:54.792Z,99337.38
2023-01-04T02:37:39.616Z,99338.53
2023-01-04T02:40:26.242Z,99337.56
2023-01-04T02:43:16.300Z,99343.63
2023-01-04T02:45:50.967Z,99334.72
2023-01-04T02:48:35.693Z,99331.34
2023-01-04T02:51:02.124Z,99314.69
2023-01-04T02:53:34.417Z,99312.38
2023-01-04T02:56:35.522Z,99312.88
2023-01-04T02:59:33.406Z,99302.00
2023-01-04T03:02:43.283Z,99292.56
2023-01-04T03:05:43.994Z,99288.84
2023-01-04T03:08:36.737Z,99290.47
2023-01-04T03:11:27.250Z,99288.03
2023-01-04T03:13:59.117Z,99286.66
2023-01-04T03:16:26.705Z,99282.84
2023-01-04T03:18:56.518Z,99272.22
2023-01-04T03:21:27.521Z,99279.00
2023-01-04T03:24:17.239Z,99265.16
2023-01-04T03:27:09.971Z,99271.78
2023-01-04T03:30:00.980Z,99280.72
2023-01-04T03:33:01.403Z,99264.78
2023-01-04T03:35:37.705Z,99263.25
2023-01-04T03:38:48.075Z,99247.41
2023-01-04T03:41:54.017Z,99246.97
2023-01-04T03:44:49.941Z,99232.22
2023-01-04T03:47:53.400Z,99239.97
2023-01-04T03:50:23.950Z,99229.44
2023-01-04T03:52:53.404Z,99223.56
2023-01-04T03:55:20.250Z,99214.84
2023-01-04T03:57:47.913Z,99222.22
2023-01-04T04:00:17.897Z,99222.16
2023-01-04T04:02:48.251Z,99220.53
2023-01-04T04:05:39.443Z,99207.72
2023-01-04T04:08:24.921Z,99205.94
2023-01-04T04:10:51.618Z,99204.25
2023-01-04T04:13:18.076Z,99188.47
2023-01-04T04:15:44.756Z,99189.63
2023-01-04T04:18:11.343Z,99193.97
2023-01-04T04:20:37.856Z,99179.59
2023-01-04T04:23:04.384Z,99170.25
2023-01-04T04:25:31.219Z,99155.03
2023-01-04T04:27:57.667Z,99159.16
2023-01-04T04:30:24.101Z,99159.38
2023-01-04T04:32:50.579Z,99160.88
2023-01-04T04:35:17.262Z,99147.63
2023-01-04T04:37:43.717Z,99141.06
2023-01-04T04:40:31.049Z,99135.75
2023-01-04T04:42:57.535Z,99132.69
2023-01-04T04:45:24.050Z,99138.50
2023-01-04T04:47:50.479Z,99131.31
2023-01-04T04:50:17.038Z,99132.69
2023-01-04T04:52:43.418Z,99125.91
2023-01-04T04:55:10.023Z,99115.09
2023-01-04T04:57:36.384Z,99120.59
2023-01-04T05:00:03.748Z,99118.88
2023-01-04T05:02:30.463Z,99130.41
2023-01-04T05:04:56.950Z,99119.72
2023-01-04T05:07:23.431Z,99117.28
2023-01-04T05:09:49.880Z,99109.38
2023-01-04T05:12:35.124Z,99110.22
2023-01-04T05:15:02.955Z,99104.44
2023-01-04T05:17:29.413Z,99109.78
2023-01-04T05:19:55.930Z,99102.97
2023-01-04T05:22:22.429Z,99114.75
2023-01-04T05:24:48.985Z,99097.28
2023-01-04T05:27:15.493Z,99092.44
2023-01-04T05:30:00.407Z,99094.25
2023-01-04T05:32:26.826Z,99096.59
2023-01-04T05:34:53.332Z,99091.13
2023-01-04T05:37:19.754Z,99079.88
2023-01-04T05:39:46.331Z,99083.59
2023-01-04T05:42:25.104Z,99081.78
2023-01-04T05:44:56.838Z,99086.97
2023-01-04T05:47:24.333Z,99088.25
2023-01-04T05:49:51.670Z,99081.78
2023-01-04T05:52:19.142Z,99094.47
2023-01-04T05:54:46.362Z,99079.41
2023-01-04T05:57:13.289Z,99083.41
2023-01-04T05:59:42.093Z,99080.56
2023-01-04T06:02:17.469Z,99084.56
2023-01-04T06:04:44.097Z,99085.75
2023-01-04T06:07:10.532Z,99081.91
2023-01-04T06:09:36.963Z,99078.06
2023-01-04T06:12:03.803Z,99076.38
2023-01-04T06:14:30.413Z,99077.47
2023-01-04T06:16:57.238Z,99085.63
2023-01-04T06:19:23.771Z,99084.38
2023-01-04T06:21:50.275Z,99080.31
2023-01-04T06:24:17.058Z,99072.16
2023-01-04T06:26:43.466Z,99058.41
2023-01-04T06:29:10.079Z,99055.50
2023-01-04T06:31:36.571Z,99053.31
2023-01-04T06:34:03.460Z,99046.19
2023-01-04T06:36:30.565Z,99034.84
2023-01-04T06:38:58.067Z,99015.41
2023-01-04T06:41:24.939Z,99014.03
2023-01-04T06:43:51.784Z,99024.38
2023-01-04T06:46:18.568Z,99025.22
2023-01-04T06:48:45.258Z,99023.53
2023-01-04T06:51:11.868Z,99029.28
2023-01-04T06:53:38.310Z,99041.94
2023-01-04T06:56:06.304Z,99040.25
2023-01-04T06:58:32.772Z,99038.56
2023-01-04T07:00:59.270Z,99016.31
2023-01-04T07:03:25.862Z,99033.44
2023-01-04T07:05:52.368Z,99009.50
2023-01-04T07:08:19.616Z,98991.06
2023-01-04T07:10:46.600Z,98988.41
2023-01-04T07:13:15.148Z,98990.13
2023-01-04T07:15:41.647Z,98999.97
2023-01-04T07:18:11.188Z,99011.31
2023-01-04T07:20:38.724Z,98995.63
2023-01-04T07:23:06.709Z,99000.34
2023-01-04T07:25:33.729Z,98999.28
2023-01-04T07:28:00.289Z,98989.88
2023-01-04T07:30:26.724Z,98988.44
2023-01-04T07:32:54.207Z,98992.31
2023-01-04T07:35:21.938Z,99014.09
2023-01-04T07:37:53.805Z,99014.25
2023-01-04T07:40:24.444Z,99016.16
2023-01-04T07:42:57.004Z,99019.78
2023-01-04T07:45:24.143Z,99018.22
2023-01-04T07:47:50.554Z,99010.78
2023-01-04T07:50:17.441Z,99015.94
2023-01-04T07:52:43.851Z,99019.09
2023-01-04T07:55:10.444Z,99030.19
2023-01-04T07:57:36.921Z,99024.63
2023-01-04T08:00:04.699Z,99035.22
2023-01-04T08:02:31.417Z,99050.13
2023-01-04T08:04:57.998Z,99036.91
2023-01-04T08:07:24.504Z,99038.69
2023-01-04T08:09:50.967Z,99028.09
2023-01-04T08:12:17.524Z,99014.97
2023-01-04T08:14:43.946Z,99013.69
2023-01-04T08:17:10.382Z,99008.59
2023-01-04T08:19:36.912Z,99006.94
2023-01-04T08:22:03.486Z,98991.03
2023-01-04T08:24:30.077Z,99021.41
2023-01-04T08:26:56.585Z,99012.75
2023-01-04T08:29:23.032Z,99004.31
2023-01-04T08:31:49.665Z,99017.81
2023-01-04T08:34:16.423Z,99003.84
2023-01-04T08:36:50.490Z,99012.31
2023-01-04T08:39:17.087Z,99015.69
2023-01-04T08:41:58.902Z,99004.22
2023-01-04T08:44:29.753Z,99009.78
2023-01-04T08:46:56.673Z,99000.25
2023-01-04T08:49:24.727Z,98998.59
2023-01-04T08:51:51.338Z,99027.50
2023-01-04T08:54:18.308Z,99014.50
2023-01-04T08:56:44.967Z,99006.66
2023-01-04T08:59:13.441Z,99004.38
2023-01-04T09:01:40.996Z,99020.19
2023-01-04T09:04:08.431Z,99013.28
2023-01-04T09:06:36.151Z,99008.72
2023-01-04T09:09:02.644Z,99007.38
2023-01-04T09:11:29.204Z,99000.19
2023-01-04T09:14:07.178Z,98996.06
2023-01-04T09:16:35.641Z,98995.84
2023-01-04T09:19:02.365Z,98992.81
2023-01-04T09:21:29.165Z,98992.31
2023-01-04T09:23:58.642Z,98997.03
2023-01-04T09:26:25.222Z,98987.00
2023-01-04T09:28:53.624Z,98981.84
2023-01-04T09:31:22.941Z,98995.94
2023-01-04T09:36:36.495Z,99012.69
2023-01-04T09:39:03.104Z,99003.28
2023-01-04T09:41:34.563Z,98992.91
2023-01-04T09:44:05.075Z,98997.47
2023-01-04T09:46:45.486Z,98991.31
2023-01-04T09:49:31.572Z,98982.75
2023-01-04T09:52:10.267Z,98976.50
2023-01-04T09:54:42.472Z,98983.00
2023-01-04T09:57:20.082Z,98991.66
2023-01-04T09:59:49.887Z,99001.19
2023-01-04T10:02:25.944Z,98989.00
2023-01-04T10:04:52.762Z,98980.53
2023-01-04T10:07:29.802Z,98984.03
2023-01-04T10:09:58.435Z,98982.22
2023-01-04T10:12:48.701Z,98974.03
2023-01-04T10:15:27.411Z,98978.09
2023-01-04T10:24:07.057Z,98959.97
2023-01-04T10:26:48.386Z,98970.88
2023-01-04T10:30:02.569Z,98965.38
2023-01-04T10:32:46.559Z,98941.72
2023-01-04T10:35:25.702Z,98959.00
2023-01-04T10:37:58.217Z,98956.00
2023-01-04T10:40:27.861Z,98953.13
2023-01-04T10:43:07.267Z,98941.84
2023-01-04T10:46:02.528Z,98942.47
2023-01-04T10:48:44.251Z,98930.81
2023-01-04T10:51:14.913Z,98930.16
2023-01-04T10:53:51.395Z,98927.41
2023-01-04T10:56:24.877Z,98934.09
2023-01-04T10:59:07.891Z,98931.97
2023-01-04T11:01:52.739Z,98928.19
2023-01-04T11:04:29.067Z,98929.66
2023-01-04T11:07:17.833Z,98916.84
2023-01-04T11:09:52.231Z,98922.09
2023-01-04T11:12:21.926Z,98926.56
2023-01-04T11:14:50.429Z,98921.50
2023-01-04T11:17:17.761Z,98927.22
2023-01-04T11:19:44.536Z,98938.56
2023-01-04T11:22:13.601Z,98938.44
2023-01-04T11:25:00.513Z,98924.31
2023-01-04T11:27:32.419Z,98915.03
2023-01-04T11:30:13.632Z,98897.31
2023-01-04T11:32:44.564Z,98904.41
2023-01-04T11:35:11.294Z,98905.50
2023-01-04T11:37:40.542Z,98902.22
2023-01-04T11:40:20.961Z,98898.81
2023-01-04T11:42:53.461Z,98891.97
2023-01-04T11:45:21.748Z,98888.97
2023-01-04T11:47:50.658Z,98878.63
2023-01-04T11:50:46.748Z,98889.34
2023-01-04T11:53:35.836Z,98870.72
2023-01-04T11:56:18.345Z,98869.88
2023-01-04T11:59:06.631Z,98860.69
2023-01-04T12:01:36.628Z,98855.31
2023-01-04T12:04:10.329Z,98853.34
2023-01-04T12:06:41.258Z,98833.50
2023-01-04T12:09:14.564Z,98844.13
2023-01-04T12:11:46.264Z,98839.16
2023-01-04T12:14:22.528Z,98840.88
2023-01-04T12:16:56.144Z,98832.34
2023-01-04T12:19:23.164Z,98835.25
2023-01-04T12:21:53.092Z,98840.63
2023-01-04T12:24:25.994Z,98836.84
2023-01-04T12:26:53.451Z,98829.50
2023-01-04T12:29:22.580Z,98823.00
2023-01-04T12:31:50.528Z,98812.53
2023-01-04T12:34:38.866Z,98813.84
2023-01-04T12:37:06.619Z,98813.06
2023-01-04T12:39:39.001Z,98807.22
2023-01-04T12:42:11.665Z,98804.00
2023-01-04T12:44:43.233Z,98798.38
2023-01-04T12:47:48.855Z,98794.16
2023-01-04T12:50:16.815Z,98800.75
2023-01-04T12:55:43.770Z,98790.28
2023-01-04T12:59:06.579Z,98788.06
2023-01-04T13:01:27.845Z,98780.69
2023-01-04T13:04:04.302Z,98767.69
2023-01-04T13:06:35.740Z,98768.25
2023-01-04T13:09:02.609Z,98762.22
2023-01-04T13:12:06.412Z,98755.94
2023-01-04T13:14:52.661Z,98750.16
2023-01-04T13:17:22.421Z,98748.34
2023-01-04T13:19:49.884Z,98749.28
2023-01-04T13:22:28.879Z,98749.03
2023-01-04T13:24:58.861Z,98738.41
2023-01-04T13:27:27.185Z,98740.41
2023-01-04T13:29:54.317Z,98743.78
2023-01-04T13:32:26.498Z,98728.88
2023-01-04T13:34:53.246Z,98733.59
2023-01-04T13:37:25.674Z,98716.28
2023-01-04T13:40:02.482Z,98715.59
2023-01-04T13:42:39.201Z,98715.50
2023-01-04T13:45:27.140Z,98716.34
2023-01-04T13:47:58.667Z,98708.91
2023-01-04T13:50:33.502Z,98713.41
2023-01-04T13:53:07.027Z,98698.72
2023-01-04T13:55:37.849Z,98680.41
2023-01-04T13:58:07.513Z,98686.69
2023-01-04T14:00:45.936Z,98690.38
2023-01-04T14:03:15.422Z,98682.25
2023-01-04T14:05:51.192Z,98679.88
2023-01-04T14:08:31.513Z,98669.22
2023-01-04T14:10:58.262Z,98674.97
2023-01-04T14:13:24.907Z,98686.44
2023-01-04T14:16:14.196Z,98689.41
2023-01-04T14:18:40.827Z,98679.59
2023-01-04T14:21:18.333Z,98679.34
2023-01-04T14:23:45.152Z,98672.03
2023-01-04T14:26:34.135Z,98674.72
2023-01-04T14:29:21.341Z,98670.63
2023-01-04T14:31:50.225Z,98665.34
2023-01-04T14:34:16.888Z,98661.66
2023-01-04T14:36:43.899Z,98677.22
2023-01-04T14:39:18.450Z,98666.44
2023-01-04T14:41:54.595Z,98673.56
2023-01-04T14:44:28.264Z,98666.56
2023-01-04T14:46:57.702Z,98662.50
2023-01-04T14:49:27.029Z,98667.84
2023-01-04T14:51:58.771Z,98659.56
2023-01-04T14:54:27.866Z,98663.50
2023-01-04T14:56:55.599Z,98660.84
2023-01-04T14:59:23.815Z,98654.94
2023-01-04T15:01:54.952Z,98662.34
2023-01-04T15:04:22.075Z,98655.25
2023-01-04T15:06:58.392Z,98653.13
2023-01-04T15:09:25.233Z,98651.56
2023-01-04T15:11:51.787Z,98648.22
2023-01-04T15:14:18.656Z,98650.47
2023-01-04T15:16:45.317Z,98643.44
2023-01-04T15:19:11.838Z,98645.81
2023-01-04T15:21:41.237Z,98648.31
2023-01-04T15:24:09.103Z,98628.31
2023-01-04T15:26:35.689Z,98664.72
2023-01-04T15:29:02.313Z,98645.41
2023-01-04T15:31:34.992Z,98648.22
2023-01-04T15:34:04.910Z,98637.84
2023-01-04T15:36:31.493Z,98627.44
2023-01-04T15:38:58.491Z,98629.13
2023-01-04T15:41:45.241Z,98627.44
2023-01-04T15:44:12.001Z,98636.53
2023-01-04T15:46:39.057Z,98628.41
2023-01-04T15:49:06.122Z,98637.69
2023-01-04T15:51:33.693Z,98637.25
2023-01-04T15:54:00.194Z,98646.75
2023-01-04T15:56:26.625Z,98621.66
2023-01-04T15:58:54.990Z,98627.53
2023-01-04T16:01:22.339Z,98618.13
2023-01-04T16:03:53.410Z,98613.97
2023-01-04T16:06:21.001Z,98623.75
2023-01-04T16:08:48.828Z,98601.91
2023-01-04T16:11:23.337Z,98605.41
2023-01-04T16:13:51.709Z,98603.16
2023-01-04T16:16:19.989Z,98602.19
2023-01-04T16:18:49.225Z,98599.41
2023-01-04T16:21:18.661Z,98605.41
2023-01-04T16:23:49.812Z,98606.09
2023-01-04T16:26:16.398Z,98601.50
2023-01-04T16:28:42.920Z,98595.75
2023-01-04T16:31:10.080Z,98594.09
2023-01-04T16:33:36.978Z,98602.75
2023-01-04T16:36:06.209Z,98601.34
2023-01-04T16:38:37.159Z,98606.09
2023-01-04T16:41:05.241Z,98591.06
2023-01-04T16:43:32.624Z,98596.69
2023-01-04T16:46:14.373Z,98593.69
2023-01-04T16:48:42.608Z,98594.75
2023-01-04T16:51:09.392Z,98597.75
2023-01-04T16:53:36.701Z,98595.34
2023-01-04T16:56:14.584Z,98595.88
2023-01-04T16:58:44.253Z,98604.25
2023-01-04T17:01:18.055Z,98606.91
2023-01-04T17:03:46.410Z,98591.50
2023-01-04T17:06:23.654Z,98593.06
2023-01-04T17:08:52.727Z,98585.38
2023-01-04T17:14:13.488Z,98578.47
2023-01-04T17:16:40.910Z,98591.66
2023-01-04T17:19:07.632Z,98591.94
2023-01-04T17:21:35.339Z,98583.09
2023-01-04T17:24:03.163Z,98591.94
2023-01-04T17:26:32.135Z,98576.56
2023-01-04T17:29:00.777Z,98586.97
2023-01-04T17:31:42.523Z,98583.59
2023-01-04T17:34:18.478Z,98590.09
2023-01-04T17:36:48.740Z,98583.34
2023-01-04T17:39:15.380Z,98592.91
2023-01-04T17:41:42.245Z,98590.94
2023-01-04T17:44:09.928Z,98593.25
2023-01-04T17:46:37.569Z,98580.66
2023-01-04T17:49:22.247Z,98576.72
2023-01-04T17:51:51.098Z,98580.09
2023-01-04T17:54:18.041Z,98583.53
2023-01-04T17:56:44.786Z,98580.75
2023-01-04T17:59:12.471Z,98580.00
2023-01-04T18:01:39.005Z,98577.63
2023-01-04T18:04:05.946Z,98570.03
2023-01-04T18:06:35.234Z,98565.97
2023-01-04T18:09:04.300Z,98563.78
2023-01-04T18:11:31.307Z,98531.13
2023-01-04T18:13:58.100Z,98540.91
2023-01-04T18:16:27.261Z,98552.31
2023-01-04T18:18:59.024Z,98551.91
2023-01-04T18:21:32.578Z,98549.47
2023-01-04T18:24:34.664Z,98556.00
2023-01-04T18:27:19.911Z,98544.44
2023-01-04T18:29:34.019Z,98550.66
2023-01-04T18:32:00.672Z,98554.84
2023-01-04T18:34:27.358Z,98552.38
2023-01-04T18:36:54.056Z,98554.84
2023-01-04T18:39:20.931Z,98565.56
2023-01-04T18:41:47.482Z,98554.06
2023-01-04T18:47:01.600Z,98555.06
2023-01-04T18:49:28.210Z,98550.66
2023-01-04T18:51:54.700Z,98536.47
2023-01-04T18:54:21.554Z,98561.63
2023-01-04T18:56:48.334Z,98559.63
2023-01-04T18:59:17.424Z,98562.69
2023-01-04T19:01:45.637Z,98560.09
2023-01-04T19:04:12.733Z,98564.31
2023-01-04T19:06:40.969Z,98569.97
2023-01-04T19:09:07.814Z,98568.25
2023-01-04T19:11:35.403Z,98562.16
2023-01-04T19:14:02.536Z,98569.16
2023-01-04T19:16:32.051Z,98565.13
2023-01-04T19:18:59.742Z,98574.34
2023-01-04T19:21:26.951Z,98576.47
2023-01-04T19:23:53.893Z,98569.31
2023-01-04T19:26:21.459Z,98569.53
2023-01-04T19:28:48.837Z,98584.81
2023-01-04T19:31:17.043Z,98570.09
2023-01-04T19:33:44.072Z,98570.47
2023-01-04T19:36:12.460Z,98566.41
2023-01-04T19:38:39.701Z,98573.81
2023-01-04T19:41:07.812Z,98570.53
2023-01-04T19:43:35.479Z,98563.22
2023-01-04T19:46:02.213Z,98583.72
2023-01-04T19:48:30.525Z,98580.31
2023-01-04T19:51:16.467Z,98591.81
2023-01-04T19:53:44.275Z,98603.59
2023-01-04T19:56:12.232Z,98598.97
2023-01-04T19:58:38.750Z,98610.47
2023-01-04T20:01:06.129Z,98612.66
2023-01-04T20:03:33.353Z,98597.66
2023-01-04T20:06:04.659Z,98593.38
2023-01-04T20:08:31.308Z,98567.31
2023-01-04T20:10:59.581Z,98559.09
2023-01-04T20:13:27.214Z,98580.19
2023-01-04T20:15:54.070Z,98586.97
2023-01-04T20:18:21.221Z,98600.31
2023-01-04T20:20:47.727Z,98601.03
2023-01-04T20:23:15.014Z,98597.59
2023-01-04T20:25:43.005Z,98606.38
2023-01-04T20:28:09.851Z,98597.28
2023-01-04T20:30:36.933Z,98592.41
2023-01-04T20:33:03.890Z,98586.75
2023-01-04T20:35:31.420Z,98592.53
2023-01-04T20:37:58.468Z,98598.97
2023-01-04T20:40:25.637Z,98596.53
2023-01-04T20:43:10.663Z,98595.91
2023-01-04T20:45:47.717Z,98597.13
2023-01-04T20:48:15.708Z,98578.97
2023-01-04T20:50:42.729Z,98577.69
2023-01-04T20:53:09.603Z,98562.25
2023-01-04T20:55:40.591Z,98571.50
2023-01-04T20:58:13.276Z,98580.94
2023-01-04T21:00:40.883Z,98581.03
2023-01-04T21:03:09.842Z,98575.81
2023-01-04T21:05:41.811Z,98581.00
2023-01-04T21:08:09.127Z,98583.84
2023-01-04T21:10:36.524Z,98575.91
2023-01-04T21:13:03.797Z,98577.13
2023-01-04T21:15:30.606Z,98576.41
2023-01-04T21:17:57.602Z,98588.25
2023-01-04T21:20:24.616Z,98579.78
2023-01-04T21:22:51.212Z,98571.91
2023-01-04T21:25:17.895Z,98573.84
2023-01-04T21:27:44.451Z,98567.38
2023-01-04T21:30:11.604Z,98564.97
2023-01-04T21:32:38.192Z,98557.56
2023-01-04T21:35:05.153Z,98568.53
2023-01-04T21:37:31.626Z,98558.03
2023-01-04T21:39:58.134Z,98559.00
2023-01-04T21:42:24.628Z,98564.63
2023-01-04T21:44:51.307Z,98568.91
2023-01-04T21:47:17.726Z,98567.00
2023-01-04T21:49:44.372Z,98562.69
2023-01-04T21:52:11.719Z,98564.50
2023-01-04T21:54:38.872Z,98578.47
2023-01-04T21:57:07.913Z,98565.22
2023-01-04T21:59:36.143Z,98564.28
2023-01-04T22:02:03.567Z,98569.09
2023-01-04T22:04:30.830Z,98572.53
2023-01-04T22:06:58.075Z,98573.13
2023-01-04T22:09:25.497Z,98571.28
2023-01-04T22:11:52.284Z,98561.25
2023-01-04T22:14:18.996Z,98561.50
2023-01-04T22:16:45.768Z,98573.72
2023-01-04T22:19:13.731Z,98579.53
2023-01-04T22:21:40.852Z,98570.56
2023-01-04T22:24:08.251Z,98580.31
2023-01-04T22:26:34.645Z,98575.16
2023-01-04T22:29:01.225Z,98567.66
2023-01-04T22:31:27.789Z,98585.97
2023-01-04T22:33:54.336Z,98575.50
2023-01-04T22:36:23.393Z,98579.00
2023-01-04T22:38:55.873Z,98574.28
2023-01-04T22:41:24.733Z,98580.31
2023-01-04T22:43:59.714Z,98580.72
2023-01-04T22:46:28.792Z,98601.13
2023-01-04T22:48:55.949Z,98596.41
2023-01-04T22:51:23.763Z,98591.03
2023-01-04T22:53:54.711Z,98571.50
2023-01-04T22:56:22.833Z,98568.06
2023-01-04T22:58:54.283Z,98568.53
2023-01-04T23:01:23.179Z,98566.63
2023-01-04T23:03:51.754Z,98569.91
2023-01-04T23:06:20.271Z,98577.91
2023-01-04T23:08:46.831Z,98578.09
2023-01-04T23:11:17.193Z,98574.84
2023-01-04T23:13:44.040Z,98566.47
2023-01-04T23:16:13.201Z,98570.59
2023-01-04T23:18:39.935Z,98570.19
2023-01-04T23:21:07.238Z,98572.63
2023-01-04T23:23:33.872Z,98586.91
2023-01-04T23:26:13.405Z,98574.84
2023-01-04T23:28:39.943Z,98574.63
2023-01-04T23:31:10.650Z,98577.53
2023-01-04T23:33:37.356Z,98572.81
2023-01-04T23:36:11.422Z,98567.16
2023-01-04T23:38:38.757Z,98567.47
2023-01-04T23:41:05.701Z,98555.97
2023-01-04T23:43:35.998Z,98560.84
2023-01-04T23:46:13.192Z,98567.25
2023-01-04T23:48:40.569Z,98566.00
2023-01-04T23:51:07.380Z,98560.88
2023-01-04T23:53:34.018Z,98569.44
2023-01-04T23:56:12.617Z,98555.25
2023-01-04T23:58:39.068Z,98548.75
